Time;durP1;ratioP1;P1;durP2;ratioP2;P2;SDS_P1;SDS_P2;PMS_P1;PMS_P2;Temp;Humidity;BMP_temperature;BMP_pressure;BME280_temperature;BME280_humidity;BME280_pressure;Samples;Min_cycle;Max_cycle;Signal;HPM_P1;HPM_P2
2022/10/12 00:01:22;;;;;;;6.42;1.77;;;;;;;5.30;83.33;101983.61;1923796;74;21019;-55
2022/10/12 00:03:51;;;;;;;6.03;2.25;;;;;;;5.29;83.33;101984.47;1925825;73;21117;-51
2022/10/12 00:06:22;;;;;;;4.72;2.27;;;;;;;5.29;83.59;101992.30;1947819;73;21485;-51
2022/10/12 00:08:53;;;;;;;9.58;1.87;;;;;;;5.27;83.56;101986.65;1958074;73;21023;-52
2022/10/12 00:11:25;;;;;;;4.87;1.70;;;;;;;5.28;83.78;101990.58;1925597;73;21105;-54
2022/10/12 00:13:54;;;;;;;5.33;2.83;;;;;;;5.29;83.67;101986.22;1928578;73;21079;-56
2022/10/12 00:16:24;;;;;;;8.65;3.52;;;;;;;5.29;83.67;101988.39;1925363;73;21520;-51
2022/10/12 00:18:55;;;;;;;6.03;3.25;;;;;;;5.29;83.81;101989.69;1923783;74;21027;-57
2022/10/12 00:21:26;;;;;;;12.40;4.78;;;;;;;5.29;83.81;101988.39;1927908;73;21069;-51
2022/10/12 00:23:57;;;;;;;5.05;3.17;;;;;;;5.26;83.79;101995.37;1923884;74;21085;-51
2022/10/12 00:26:26;;;;;;;7.83;4.28;;;;;;;5.23;83.78;101984.02;1923925;74;21019;-53
2022/10/12 00:28:58;;;;;;;13.22;3.77;;;;;;;5.20;83.98;101989.66;1923922;74;21137;-51
2022/10/12 00:31:28;;;;;;;9.00;2.87;;;;;;;5.18;83.95;101990.98;1928723;73;21154;-60
2022/10/12 00:34:02;;;;;;;6.05;2.92;;;;;;;5.16;84.13;101994.00;1957945;73;21003;-50
2022/10/12 00:36:34;;;;;;;4.35;2.60;;;;;;;5.13;84.01;101991.84;1957327;73;21137;-52
2022/10/12 00:39:05;;;;;;;4.62;2.25;;;;;;;5.09;84.16;101997.89;1940944;73;21024;-48
2022/10/12 00:41:37;;;;;;;5.47;2.08;;;;;;;5.03;84.24;101999.64;1930696;73;21010;-51
2022/10/12 00:44:25;;;;;;;7.97;3.83;;;;;;;5.01;84.05;101995.26;1928992;73;21164;-50
2022/10/12 00:46:56;;;;;;;13.10;6.75;;;;;;;4.99;83.91;102000.47;1942424;73;21051;-49
2022/10/12 00:49:26;;;;;;;8.38;5.17;;;;;;;4.98;83.91;102002.66;1944171;73;21497;-49
2022/10/12 00:51:57;;;;;;;7.58;5.20;;;;;;;4.96;83.81;102000.89;1935940;73;21099;-55
2022/10/12 00:54:29;;;;;;;8.23;4.65;;;;;;;4.94;83.78;102006.13;1923588;74;21036;-54
2022/10/12 00:56:58;;;;;;;11.50;4.15;;;;;;;4.93;83.74;102004.37;1921619;73;21506;-57
2022/10/12 00:59:33;;;;;;;11.55;5.05;;;;;;;4.92;83.64;102015.66;1936458;73;21541;-57
2022/10/12 01:02:03;;;;;;;16.75;8.35;;;;;;;4.90;83.49;102012.17;1947785;73;21505;-50
2022/10/12 01:04:33;;;;;;;6.42;5.22;;;;;;;4.89;83.67;102016.97;1923686;74;21555;-53
2022/10/12 01:07:02;;;;;;;9.00;4.15;;;;;;;4.88;83.55;102017.82;1923828;74;21150;-54
2022/10/12 01:09:32;;;;;;;8.38;4.42;;;;;;;4.86;83.62;102022.16;1923784;74;21063;-52
2022/10/12 01:12:02;;;;;;;9.40;5.20;;;;;;;4.84;84.14;102018.68;1933075;73;21535;-55
2022/10/12 01:14:31;;;;;;;11.97;6.10;;;;;;;4.82;84.25;102011.28;1952789;73;21112;-54
2022/10/12 01:17:14;;;;;;;9.98;6.12;;;;;;;4.81;84.70;102016.05;1952785;73;21043;-53
2022/10/12 01:20:21;;;;;;;13.58;5.05;;;;;;;4.81;84.88;102013.02;1918668;73;21134;-55
2022/10/12 01:23:08;;;;;;;7.97;3.05;;;;;;;4.80;84.97;102019.53;1950424;73;21023;-52
2022/10/12 01:26:13;;;;;;;8.93;2.52;;;;;;;4.79;85.02;102021.69;1950304;73;21066;-56
2022/10/12 01:29:00;;;;;;;9.70;3.00;;;;;;;4.77;84.81;102015.59;1952843;73;20996;-55
2022/10/12 01:31:32;;;;;;;8.35;3.05;;;;;;;4.76;84.54;102021.25;1952102;73;21529;-53
2022/10/12 01:34:15;;;;;;;7.60;2.45;;;;;;;4.75;84.54;102019.94;1952366;73;21122;-55
2022/10/12 01:36:47;;;;;;;5.58;2.67;;;;;;;4.74;84.81;102020.78;1942259;73;21136;-55
2022/10/12 01:39:27;;;;;;;5.15;2.60;;;;;;;4.73;84.96;102016.45;1927309;74;21063;-54
2022/10/12 01:41:58;;;;;;;8.15;3.08;;;;;;;4.70;85.08;102016.42;1927914;73;21031;-52
2022/10/12 01:44:29;;;;;;;9.50;2.30;;;;;;;4.69;85.17;102018.61;1926607;74;21035;-53
2022/10/12 01:46:57;;;;;;;6.00;2.37;;;;;;;4.69;85.09;102016.00;1935744;73;21043;-54
2022/10/12 01:49:29;;;;;;;6.97;2.60;;;;;;;4.69;85.46;102013.39;1937723;73;21015;-51
2022/10/12 01:52:22;;;;;;;5.78;2.92;;;;;;;4.68;85.80;102015.55;1927241;74;21067;-56
2022/10/12 01:55:09;;;;;;;7.65;2.80;;;;;;;4.68;85.86;102011.62;1927008;74;21548;-53
2022/10/12 01:58:03;;;;;;;4.00;1.65;;;;;;;4.67;85.83;102009.87;1927421;74;21503;-56
2022/10/12 02:00:33;;;;;;;;;;;;;;;4.67;85.85;102022.50;1930066;74;21485;-52
2022/10/12 02:03:04;;;;;;;5.75;3.37;;;;;;;4.67;85.73;102013.37;1927093;74;20534;-54
2022/10/12 02:05:48;;;;;;;4.95;2.10;;;;;;;4.66;85.46;102014.66;1928907;73;21176;-54
2022/10/12 02:08:19;;;;;;;8.28;2.85;;;;;;;4.63;85.46;102020.31;1927333;74;21426;-55
2022/10/12 02:11:09;;;;;;;5.05;2.60;;;;;;;4.62;85.68;102013.33;1927354;74;21035;-54
2022/10/12 02:13:46;;;;;;;2.92;1.37;;;;;;;4.59;85.75;102017.25;1927279;74;21086;-54
2022/10/12 02:16:20;;;;;;;7.40;2.25;;;;;;;4.59;85.57;102022.47;1926985;74;21063;-55
2022/10/12 02:18:51;;;;;;;6.58;1.70;;;;;;;4.58;85.68;102015.48;1927617;74;21548;-54
2022/10/12 02:21:24;;;;;;;6.20;2.10;;;;;;;4.57;85.53;102018.95;1927466;74;21097;-56
2022/10/12 02:23:55;;;;;;;4.10;1.50;;;;;;;4.57;85.61;102023.30;1927308;74;21044;-58
2022/10/12 02:26:24;;;;;;;5.03;2.30;;;;;;;4.56;85.47;102022.44;1927913;73;21067;-59
2022/10/12 02:28:53;;;;;;;3.98;2.30;;;;;;;4.55;85.37;102026.33;1927361;74;21450;-58
2022/10/12 02:31:41;;;;;;;6.85;3.62;;;;;;;4.52;85.84;102028.50;1927329;74;21470;-57
2022/10/12 02:34:36;;;;;;;5.58;2.75;;;;;;;4.52;86.11;102025.00;1927363;74;21482;-53
2022/10/12 02:37:13;;;;;;;3.60;2.15;;;;;;;4.50;86.00;102025.02;1934291;73;21079;-52
2022/10/12 02:39:54;;;;;;;3.50;2.02;;;;;;;4.49;86.05;102032.38;1950561;73;21105;-58
2022/10/12 02:42:25;;;;;;;7.28;2.30;;;;;;;4.47;85.96;102026.73;1950761;73;21039;-47
2022/10/12 02:44:57;;;;;;;5.55;3.05;;;;;;;4.45;85.94;102028.02;1937675;73;21490;-50
2022/10/12 02:47:29;;;;;;;2.55;1.55;;;;;;;4.44;86.00;102027.55;1924368;73;21461;-52
2022/10/12 02:50:00;;;;;;;4.47;2.33;;;;;;;4.41;86.15;102023.64;1923812;74;21485;-53
2022/10/12 02:52:31;;;;;;;5.85;2.87;;;;;;;4.40;86.24;102025.80;1924298;73;21176;-51
2022/10/12 02:55:03;;;;;;;10.53;4.55;;;;;;;4.39;86.49;102025.34;1952068;73;21197;-52
2022/10/12 02:57:31;;;;;;;5.42;3.37;;;;;;;4.38;86.55;102024.48;1957951;73;21051;-50
2022/10/12 03:00:00;;;;;;;6.33;3.50;;;;;;;4.36;86.74;102017.52;1958173;73;21503;-53
2022/10/12 03:02:29;;;;;;;8.80;3.40;;;;;;;4.36;86.86;102036.63;1957163;73;21157;-52
2022/10/12 03:04:58;;;;;;;4.45;1.90;;;;;;;4.35;86.61;102034.91;1958058;73;21041;-54
2022/10/12 03:07:27;;;;;;;10.38;3.15;;;;;;;4.36;86.53;102038.38;1958015;73;21031;-54
2022/10/12 03:09:56;;;;;;;5.15;2.58;;;;;;;4.34;86.57;102029.23;1957879;73;21023;-52
2022/10/12 03:12:25;;;;;;;6.67;3.00;;;;;;;4.35;86.68;102031.00;1958018;73;21008;-54
2022/10/12 03:14:54;;;;;;;4.33;2.33;;;;;;;4.36;86.71;102035.77;1923717;74;21031;-52
2022/10/12 03:17:23;;;;;;;7.10;2.80;;;;;;;4.37;86.63;102037.50;1923730;74;21026;-54
2022/10/12 03:19:52;;;;;;;9.23;2.37;;;;;;;4.36;86.68;102032.72;1923752;74;21015;-52
2022/10/12 03:22:22;;;;;;;6.42;2.12;;;;;;;4.38;86.70;102037.52;1930818;73;21023;-54
2022/10/12 03:24:51;;;;;;;4.90;2.22;;;;;;;4.40;86.71;102041.45;1931020;71;21475;-54
2022/10/12 03:27:20;;;;;;;9.48;1.92;;;;;;;4.40;86.66;102038.84;1957999;73;21024;-55
2022/10/12 03:29:51;;;;;;;6.50;2.37;;;;;;;4.39;86.44;102039.69;1953332;73;21188;-56
2022/10/12 03:32:21;;;;;;;4.53;2.33;;;;;;;4.39;86.46;102039.69;1952716;73;21035;-53
2022/10/12 03:34:50;;;;;;;6.85;3.20;;;;;;;4.37;86.51;102040.11;1952630;73;21124;-51
2022/10/12 03:37:19;;;;;;;6.58;3.05;;;;;;;4.36;86.64;102037.08;1952618;73;21148;-53
2022/10/12 03:39:48;;;;;;;4.87;2.87;;;;;;;4.34;86.74;102040.11;1952498;73;21555;-50
2022/10/12 03:42:16;;;;;;;7.05;3.37;;;;;;;4.34;86.99;102042.72;1953928;73;21050;-54
2022/10/12 03:44:47;;;;;;;9.53;3.85;;;;;;;4.34;87.19;102042.72;1946480;73;21019;-55
2022/10/12 03:47:17;;;;;;;10.58;5.30;;;;;;;4.34;87.43;102045.33;1923713;74;21039;-54
2022/10/12 03:49:45;;;;;;;9.15;6.03;;;;;;;4.33;87.40;102041.81;1922677;74;21101;-53
2022/10/12 03:52:14;;;;;;;9.38;4.80;;;;;;;4.33;87.43;102044.86;1925706;73;21019;-52
2022/10/12 03:54:43;;;;;;;12.45;7.28;;;;;;;4.35;87.38;102049.66;1937280;73;21117;-56
2022/10/12 03:57:12;;;;;;;7.70;4.90;;;;;;;4.37;87.43;102055.34;1952667;73;21023;-55
2022/10/12 03:59:41;;;;;;;9.18;5.05;;;;;;;4.39;87.31;102052.72;1952695;73;21129;-58
2022/10/12 04:02:09;;;;;;;7.72;4.92;;;;;;;4.43;87.32;102061.91;1950500;73;21128;-55
2022/10/12 04:04:39;;;;;;;6.65;3.98;;;;;;;4.47;87.23;102060.63;1944037;73;21031;-55
2022/10/12 04:07:08;;;;;;;8.35;3.50;;;;;;;4.50;87.16;102059.33;1923560;74;21047;-59
2022/10/12 04:09:37;;;;;;;8.50;3.10;;;;;;;4.55;87.06;102062.85;1932501;73;21085;-53
2022/10/12 04:12:06;;;;;;;7.83;4.42;;;;;;;4.59;87.03;102065.51;1928626;73;21108;-52
2022/10/12 04:14:35;;;;;;;5.10;2.90;;;;;;;4.64;86.96;102066.39;1923544;74;21063;-50
2022/10/12 04:17:04;;;;;;;6.03;3.42;;;;;;;4.70;86.83;102065.99;1923814;74;21055;-49
2022/10/12 04:19:32;;;;;;;7.85;4.40;;;;;;;4.75;86.76;102066.91;1929981;73;21093;-50
2022/10/12 04:22:01;;;;;;;7.83;4.22;;;;;;;4.79;86.75;102065.61;1932431;71;21031;-49
2022/10/12 04:24:30;;;;;;;14.00;3.80;;;;;;;4.86;86.75;102072.19;1968903;71;21114;-49
2022/10/12 04:26:59;;;;;;;9.35;3.95;;;;;;;4.94;86.68;102064.86;1951079;71;21023;-51
2022/10/12 04:29:28;;;;;;;7.72;4.17;;;;;;;5.02;86.75;102068.37;1962776;71;21096;-54
2022/10/12 04:31:57;;;;;;;10.05;3.95;;;;;;;5.13;86.71;102073.65;1970331;71;21583;-53
2022/10/12 04:34:26;;;;;;;9.88;6.03;;;;;;;5.24;86.71;102071.09;1940073;73;21048;-51
2022/10/12 04:36:54;;;;;;;13.40;7.75;;;;;;;5.33;86.68;102060.69;1923763;74;21052;-50
2022/10/12 04:39:23;;;;;;;15.83;6.53;;;;;;;5.45;86.66;102068.98;1940571;71;21062;-51
2022/10/12 04:41:51;;;;;;;14.65;7.40;;;;;;;5.54;86.61;102070.77;1913578;74;21139;-48
2022/10/12 04:44:21;;;;;;;13.78;8.55;;;;;;;5.66;86.53;102078.61;1870058;74;21151;-49
2022/10/12 04:46:49;;;;;;;10.45;6.30;;;;;;;5.77;86.34;102074.31;1885847;76;21591;-51
2022/10/12 04:49:18;;;;;;;16.02;6.83;;;;;;;5.88;86.21;102074.31;1965880;73;21093;-51
2022/10/12 04:51:47;;;;;;;11.10;5.55;;;;;;;5.97;86.08;102078.72;1965817;73;21120;-52
2022/10/12 04:54:16;;;;;;;11.70;6.08;;;;;;;6.05;85.94;102080.04;1965024;73;21027;-45
2022/10/12 04:56:45;;;;;;;18.77;5.75;;;;;;;6.13;85.86;102079.19;1965542;73;21007;-48
2022/10/12 04:59:14;;;;;;;5.22;4.50;;;;;;;6.25;85.77;102081.36;1931337;73;21035;-50
2022/10/12 05:01:42;;;;;;;8.38;5.72;;;;;;;6.36;85.63;102079.62;1931402;74;21472;-47
2022/10/12 05:04:11;;;;;;;10.65;6.55;;;;;;;6.45;85.47;102079.62;1931183;74;21059;-46
2022/10/12 05:06:40;;;;;;;7.97;5.30;;;;;;;6.59;85.33;102077.45;1955592;73;21079;-49
2022/10/12 05:09:09;;;;;;;8.28;5.05;;;;;;;6.73;85.19;102086.12;1962665;73;21063;-49
2022/10/12 05:11:37;;;;;;;11.20;5.40;;;;;;;6.95;84.98;102086.55;1965822;73;21042;-48
2022/10/12 05:14:06;;;;;;;8.25;4.35;;;;;;;7.32;84.57;102090.77;1965733;73;21043;-48
2022/10/12 05:16:35;;;;;;;7.78;3.05;;;;;;;7.57;84.31;102086.30;1965811;73;21027;-50
2022/10/12 05:19:03;;;;;;;6.50;2.20;;;;;;;7.78;84.46;102091.00;1944992;73;21018;-53
2022/10/12 05:21:33;;;;;;;5.67;2.08;;;;;;;7.80;84.10;102084.89;1931144;74;21082;-48
2022/10/12 05:24:01;;;;;;;7.83;2.72;;;;;;;7.97;83.01;102090.02;1931249;74;21492;-52
2022/10/12 05:26:30;;;;;;;9.38;2.85;;;;;;;8.27;82.31;102091.98;1931168;74;21094;-49
2022/10/12 05:28:59;;;;;;;8.88;2.67;;;;;;;8.53;81.66;102090.48;1933487;73;21043;-50
2022/10/12 05:31:28;;;;;;;12.47;2.12;;;;;;;8.82;81.14;102094.16;1931167;74;21046;-47
2022/10/12 05:33:57;;;;;;;3.83;1.67;;;;;;;9.25;80.32;102096.30;1931211;74;21101;-50
2022/10/12 05:36:25;;;;;;;7.17;1.67;;;;;;;9.89;79.29;102092.87;1938735;71;21055;-47
2022/10/12 05:38:54;;;;;;;3.33;1.62;;;;;;;10.60;78.61;102093.93;1952749;71;21141;-47
2022/10/12 05:41:23;;;;;;;8.63;1.85;;;;;;;11.49;78.32;102096.19;1948503;72;21032;-49
2022/10/12 05:43:52;;;;;;;5.92;2.08;;;;;;;12.21;77.31;102095.03;1940580;72;21476;-49
2022/10/12 05:46:21;;;;;;;4.95;1.52;;;;;;;12.87;76.17;102089.38;1930247;72;20996;-49
2022/10/12 05:48:49;;;;;;;9.60;1.90;;;;;;;13.56;75.75;102093.19;1933061;72;21092;-48
2022/10/12 05:51:18;;;;;;;4.60;1.70;;;;;;;14.34;75.16;102099.58;1956840;72;21099;-48
2022/10/12 05:53:47;;;;;;;6.95;1.80;;;;;;;15.02;74.25;102093.69;1936616;74;21087;-51
2022/10/12 05:56:15;;;;;;;5.78;1.90;;;;;;;15.54;72.80;102095.33;1915864;75;21051;-49
2022/10/12 05:58:44;;;;;;;7.03;2.00;;;;;;;16.05;71.89;102098.70;1944714;72;21090;-49
2022/10/12 06:01:13;;;;;;;5.65;1.50;;;;;;;16.23;68.21;102095.73;1942625;73;21097;-48
2022/10/12 06:03:42;;;;;;;6.80;1.50;;;;;;;16.33;66.45;102097.95;1922591;75;21434;-49
2022/10/12 06:06:11;;;;;;;7.08;1.80;;;;;;;16.73;66.53;102099.41;1920451;75;21466;-51
2022/10/12 06:08:41;;;;;;;4.65;1.70;;;;;;;17.25;65.87;102093.11;1918992;74;21168;-46
2022/10/12 06:11:10;;;;;;;7.60;1.30;;;;;;;17.86;65.61;102095.20;1919090;75;21071;-49
2022/10/12 06:13:39;;;;;;;5.22;1.52;;;;;;;18.39;65.01;102091.70;1919110;75;20980;-47
2022/10/12 06:16:08;;;;;;;7.42;1.62;;;;;;;18.83;63.80;102097.92;1919247;75;21036;-47
2022/10/12 06:18:36;;;;;;;6.10;1.87;;;;;;;19.33;61.97;102094.83;1919258;75;21102;-50
2022/10/12 06:21:05;;;;;;;7.37;1.35;;;;;;;19.84;61.20;102096.03;1919027;75;21027;-49
2022/10/12 06:23:34;;;;;;;4.62;1.60;;;;;;;20.44;60.35;102089.42;1919156;74;21020;-48
2022/10/12 06:26:03;;;;;;;7.08;1.30;;;;;;;21.15;59.32;102079.78;1918945;75;21188;-49
2022/10/12 06:28:32;;;;;;;3.77;1.40;;;;;;;21.72;57.39;102083.38;1922262;72;21101;-46
2022/10/12 06:32:34;;;;;;;5.60;1.60;;;;;;;22.21;56.13;102082.83;1958864;73;22266;-50
2022/10/12 06:35:03;;;;;;;4.78;2.10;;;;;;;22.35;55.03;102080.12;1921271;74;21470;-49
2022/10/12 06:37:32;;;;;;;11.75;2.15;;;;;;;22.68;54.35;102083.27;1922011;75;21063;-47
2022/10/12 06:40:00;;;;;;;5.35;2.08;;;;;;;23.11;53.54;102082.50;1922046;75;21156;-45
2022/10/12 06:42:29;;;;;;;8.88;2.20;;;;;;;23.51;52.67;102080.95;1922097;75;21011;-49
2022/10/12 06:44:58;;;;;;;11.05;2.62;;;;;;;23.95;50.69;102083.22;1919325;75;20991;-49
2022/10/12 06:47:26;;;;;;;11.73;4.00;;;;;;;24.53;49.92;102077.48;1915372;75;21035;-46
2022/10/12 06:49:55;;;;;;;4.28;1.60;;;;;;;25.05;48.54;102077.42;1915396;75;21090;-45
2022/10/12 06:52:24;;;;;;;4.00;1.50;;;;;;;25.27;47.74;102077.09;1915426;75;21193;-50
2022/10/12 06:54:53;;;;;;;3.80;1.00;;;;;;;24.42;48.00;102078.73;1915292;75;21015;-47
2022/10/12 06:57:21;;;;;;;2.72;1.00;;;;;;;25.04;46.99;102076.19;1915348;75;21114;-50
2022/10/12 06:59:50;;;;;;;5.72;2.08;;;;;;;25.66;45.44;102068.58;1915378;75;21039;-51
2022/10/12 07:02:19;;;;;;;1.92;0.85;;;;;;;26.37;44.44;102070.27;1915475;75;21082;-48
2022/10/12 07:04:54;;;;;;;2.05;1.12;;;;;;;26.59;42.71;102070.13;1915369;75;21023;-49
2022/10/12 07:07:23;;;;;;;3.30;0.90;;;;;;;26.92;42.57;102072.27;1915300;75;21481;-49
2022/10/12 07:09:53;;;;;;;1.00;0.80;;;;;;;27.50;41.56;102072.15;1915332;75;21075;-51
2022/10/12 07:12:22;;;;;;;2.35;0.98;;;;;;;27.97;40.37;102068.34;1915340;75;21074;-51
2022/10/12 07:14:51;;;;;;;1.40;0.72;;;;;;;28.10;38.36;102066.20;1915370;75;21105;-51
2022/10/12 07:17:20;;;;;;;4.17;1.00;;;;;;;27.79;38.68;102068.14;1915436;75;21027;-48
2022/10/12 07:19:49;;;;;;;1.37;0.68;;;;;;;28.17;37.92;102058.88;1915409;75;21404;-47
2022/10/12 07:22:17;;;;;;;2.22;0.85;;;;;;;28.02;36.38;102055.23;1912430;75;21083;-49
2022/10/12 07:24:47;;;;;;;2.98;0.90;;;;;;;28.16;35.80;102055.80;1881577;75;21070;-45
2022/10/12 07:27:16;;;;;;;2.52;1.17;;;;;;;28.14;34.79;102064.06;1916846;74;21117;-55
2022/10/12 07:29:45;;;;;;;2.80;1.02;;;;;;;27.16;35.98;102067.89;1922762;74;21146;-52
2022/10/12 07:32:14;;;;;;;2.83;0.90;;;;;;;27.60;36.16;102062.72;1903639;74;21646;-58
2022/10/12 07:34:43;;;;;;;2.00;0.88;;;;;;;27.23;36.58;102064.16;1909931;74;21138;-55
2022/10/12 07:37:12;;;;;;;4.15;1.22;;;;;;;26.20;37.76;102063.61;1884213;74;21066;-54
2022/10/12 07:39:41;;;;;;;2.87;1.05;;;;;;;24.79;39.09;102070.55;1870725;76;21042;-52
2022/10/12 07:42:10;;;;;;;2.45;1.07;;;;;;;23.81;39.81;102074.34;1908807;74;21129;-51
2022/10/12 07:44:39;;;;;;;6.40;1.17;;;;;;;23.42;40.08;102068.18;1901588;75;21047;-50
2022/10/12 07:47:08;;;;;;;2.75;1.00;;;;;;;22.50;41.08;102067.94;1878594;74;21145;-54
2022/10/12 07:49:36;;;;;;;1.52;0.95;;;;;;;23.01;40.66;102065.27;1870198;75;21034;-51
2022/10/12 07:52:05;;;;;;;1.85;0.90;;;;;;;24.71;39.14;102064.40;1870083;77;21066;-53
2022/10/12 07:54:34;;;;;;;1.52;0.80;;;;;;;26.17;37.28;102057.99;1910873;74;21043;-56
2022/10/12 07:57:03;;;;;;;1.60;0.80;;;;;;;27.24;36.15;102056.42;1907304;74;21044;-56
2022/10/12 07:59:31;;;;;;;2.83;0.98;;;;;;;27.95;35.26;102060.86;1922655;74;21033;-57
2022/10/12 08:02:00;;;;;;;3.75;1.07;;;;;;;28.45;34.06;102059.32;1902544;74;21122;-56
2022/10/12 08:04:29;;;;;;;1.40;0.88;;;;;;;28.75;33.87;102058.78;1904895;75;21203;-56
2022/10/12 08:06:58;;;;;;;2.92;0.80;;;;;;;26.83;35.13;102059.56;1904380;75;21047;-56
2022/10/12 08:09:27;;;;;;;2.45;1.10;;;;;;;25.01;36.68;102061.60;1902008;75;21071;-55
2022/10/12 08:11:55;;;;;;;3.30;1.00;;;;;;;24.33;37.36;102061.95;1905668;74;21088;-55
2022/10/12 08:14:24;;;;;;;1.87;0.80;;;;;;;25.42;36.25;102059.66;1918904;74;21155;-55
2022/10/12 08:16:53;;;;;;;1.10;0.70;;;;;;;26.69;34.86;102054.03;1877123;75;21088;-56
2022/10/12 08:19:22;;;;;;;3.80;0.80;;;;;;;27.28;33.97;102057.88;1910776;74;21102;-56
2022/10/12 08:21:51;;;;;;;1.47;0.80;;;;;;;28.05;33.44;102048.20;1913723;74;21051;-56
2022/10/12 08:24:20;;;;;;;2.22;0.75;;;;;;;28.90;32.60;102046.95;1912513;74;21146;-55
2022/10/12 08:26:49;;;;;;;3.47;0.82;;;;;;;27.38;33.25;102047.08;1911807;75;21462;-57
2022/10/12 08:29:18;;;;;;;1.92;0.60;;;;;;;27.63;33.12;102051.59;1912287;74;21125;-48
2022/10/12 08:31:49;;;;;;;1.25;0.75;;;;;;;27.64;33.09;102050.63;1918890;74;21043;-49
2022/10/12 08:34:18;;;;;;;1.02;0.80;;;;;;;26.48;34.29;102046.40;1921271;75;21063;-57
2022/10/12 08:36:46;;;;;;;0.68;0.53;;;;;;;25.28;35.26;102049.64;1917603;75;21020;-52
2022/10/12 08:39:17;;;;;;;9.98;0.80;;;;;;;24.49;35.80;102049.02;1914570;75;21087;-51
2022/10/12 08:42:00;;;;;;;3.02;1.10;;;;;;;25.33;34.78;102047.43;1914687;75;21071;-52
2022/10/12 08:44:32;;;;;;;;;;;;;;;26.62;33.35;102041.20;1914800;74;21476;-54
2022/10/12 08:47:04;;;;;;;2.40;0.60;;;;;;;27.95;32.38;102035.16;1903995;75;20143;-51
2022/10/12 08:49:35;;;;;;;2.85;0.70;;;;;;;28.62;31.13;102035.22;1914620;75;21109;-53
2022/10/12 08:52:06;;;;;;;5.25;1.00;;;;;;;29.10;30.78;102035.52;1921329;75;21535;-54
2022/10/12 08:54:38;;;;;;;1.00;0.60;;;;;;;28.95;31.21;102035.67;1921363;75;21023;-54
2022/10/12 08:57:09;;;;;;;2.33;1.20;;;;;;;29.52;30.67;102030.95;1913392;74;21136;-55
2022/10/12 08:59:38;;;;;;;3.65;0.95;;;;;;;30.02;29.98;102021.45;1932060;74;21109;-54
2022/10/12 09:02:26;;;;;;;3.90;0.85;;;;;;;30.44;29.41;102024.01;1933042;74;21130;-57
2022/10/12 09:05:03;;;;;;;2.52;0.80;;;;;;;30.94;28.90;102014.61;1933268;74;21019;-55
2022/10/12 09:07:41;;;;;;;3.58;1.70;;;;;;;31.29;28.46;102020.02;1913100;74;21505;-56
2022/10/12 09:10:30;;;;;;;1.67;0.80;;;;;;;31.20;28.17;102018.29;1876709;75;21063;-60
2022/10/12 09:13:20;;;;;;;1.65;0.85;;;;;;;31.37;28.05;102014.58;1911973;74;21039;-48
2022/10/12 09:15:58;;;;;;;1.67;0.70;;;;;;;31.28;27.98;102011.50;1903801;75;21101;-48
2022/10/12 09:18:38;;;;;;;5.72;1.00;;;;;;;31.63;27.58;102014.52;1893189;75;21611;-55
2022/10/12 09:21:20;;;;;;;2.33;0.90;;;;;;;31.69;27.31;102012.98;1882232;76;21086;-54
2022/10/12 09:23:49;;;;;;;1.80;0.78;;;;;;;31.02;27.60;102011.58;1897826;73;21039;-54
2022/10/12 09:26:21;;;;;;;3.52;0.72;;;;;;;29.60;28.58;102012.06;1912036;73;21422;-55
2022/10/12 09:28:52;;;;;;;2.17;0.70;;;;;;;29.65;28.21;102013.78;1910110;73;21431;-55
2022/10/12 09:31:44;;;;;;;1.80;0.80;;;;;;;29.85;26.90;102012.31;1906727;73;21047;-48
2022/10/12 09:34:13;;;;;;;1.25;0.70;;;;;;;29.58;25.76;102005.91;1916659;74;21084;-51
2022/10/12 09:36:43;;;;;;;1.00;0.60;;;;;;;29.48;26.12;102007.86;1923535;74;21057;-53
2022/10/12 09:39:21;;;;;;;1.60;1.00;;;;;;;29.49;26.22;102005.48;1923530;74;21544;-49
2022/10/12 09:41:50;;;;;;;2.20;0.80;;;;;;;29.46;26.25;102003.09;1918975;74;21109;-47
2022/10/12 09:44:39;;;;;;;1.42;0.62;;;;;;;29.91;26.47;102005.41;1902090;74;21117;-51
2022/10/12 09:47:22;;;;;;;1.35;0.57;;;;;;;30.51;26.58;102000.10;1881808;75;21039;-48
2022/10/12 09:49:52;;;;;;;1.60;0.78;;;;;;;30.80;26.03;101996.16;1873438;75;21498;-49
2022/10/12 09:52:24;;;;;;;0.90;0.50;;;;;;;30.18;26.67;102000.36;1876977;75;21513;-49
2022/10/12 09:54:59;;;;;;;1.32;0.70;;;;;;;30.42;26.57;101996.98;1880051;75;21048;-50
2022/10/12 09:57:39;;;;;;;9.25;3.52;;;;;;;30.27;25.72;101989.03;1900112;75;21048;-51
2022/10/12 10:00:27;;;;;;;8.43;2.25;;;;;;;29.83;24.99;101990.75;1877546;75;21529;-49
2022/10/12 10:02:57;;;;;;;5.90;1.70;;;;;;;29.35;25.42;101994.66;1879869;75;21089;-48
2022/10/12 10:05:31;;;;;;;1.82;1.10;;;;;;;29.18;24.91;101993.63;1865976;77;21044;-48
2022/10/12 10:08:23;;;;;;;1.72;0.78;;;;;;;29.23;25.65;101995.39;1865951;77;21047;-50
2022/10/12 10:10:54;;;;;;;2.07;0.90;;;;;;;29.67;25.74;101989.72;1898996;75;21094;-50
2022/10/12 10:13:26;;;;;;;2.12;0.70;;;;;;;29.33;25.14;101984.98;1882934;75;21498;-52
2022/10/12 10:16:10;;;;;;;1.42;0.90;;;;;;;29.33;25.70;101984.98;1893314;75;21110;-52
2022/10/12 10:18:47;;;;;;;3.15;0.70;;;;;;;29.48;25.55;101980.72;1882084;75;21260;-50
2022/10/12 10:21:17;;;;;;;1.65;0.85;;;;;;;29.58;25.19;101978.77;1872734;76;21129;-47
2022/10/12 10:23:52;;;;;;;2.52;0.60;;;;;;;28.81;24.19;101983.67;1879078;75;21056;-49
2022/10/12 10:26:23;;;;;;;1.70;0.75;;;;;;;28.33;24.76;101976.55;1887236;75;21040;-48
2022/10/12 10:28:55;;;;;;;2.42;0.90;;;;;;;28.40;25.28;101978.14;1879514;75;21042;-49
2022/10/12 10:31:28;;;;;;;2.37;0.80;;;;;;;28.43;24.70;101971.93;1884951;75;21028;-49
2022/10/12 10:34:08;;;;;;;2.20;0.70;;;;;;;28.32;25.12;101972.11;1903550;74;21067;-49
2022/10/12 10:36:46;;;;;;;2.58;0.93;;;;;;;28.48;25.85;101970.99;1919685;74;21112;-48
2022/10/12 10:39:20;;;;;;;2.42;0.70;;;;;;;28.71;26.08;101963.88;1914960;74;21047;-48
2022/10/12 10:41:50;;;;;;;2.40;1.02;;;;;;;28.79;26.39;101970.77;1902049;75;21493;-49
2022/10/12 10:44:28;;;;;;;3.15;0.90;;;;;;;29.01;26.40;101967.28;1903292;75;21015;-47
2022/10/12 10:47:02;;;;;;;3.92;0.80;;;;;;;28.99;26.63;101967.43;1908531;75;21046;-50
2022/10/12 10:49:37;;;;;;;1.25;0.60;;;;;;;28.85;26.85;101967.95;1910337;74;21130;-52
2022/10/12 10:52:09;;;;;;;7.28;0.90;;;;;;;28.64;27.17;101964.99;1923441;74;21048;-54
2022/10/12 10:54:38;;;;;;;1.45;0.70;;;;;;;27.67;27.95;101968.67;1922334;74;21119;-52
2022/10/12 10:57:12;;;;;;;2.50;0.80;;;;;;;27.47;28.42;101966.96;1923521;74;21498;-52
2022/10/12 10:59:53;;;;;;;1.22;0.72;;;;;;;27.67;28.30;101964.62;1922414;74;21043;-49
2022/10/12 11:02:30;;;;;;;0.98;0.80;;;;;;;27.97;28.05;101962.77;1923549;74;21110;-52
2022/10/12 11:05:04;;;;;;;2.22;1.02;;;;;;;28.39;27.92;101959.69;1923461;74;21475;-52
2022/10/12 11:07:45;;;;;;;1.02;0.68;;;;;;;28.43;27.65;101955.68;1916388;74;21517;-49
2022/10/12 11:10:36;;;;;;;3.00;0.70;;;;;;;28.41;27.90;101957.69;1922110;74;21029;-48
2022/10/12 11:13:19;;;;;;;1.15;0.70;;;;;;;28.17;27.55;101964.11;1919908;74;21079;-51
2022/10/12 11:16:00;;;;;;;1.45;0.65;;;;;;;27.66;27.93;101959.34;1923548;74;21095;-49
2022/10/12 11:18:47;;;;;;;1.07;0.60;;;;;;;27.49;28.47;101964.97;1923658;74;21111;-52
2022/10/12 11:21:36;;;;;;;2.15;0.70;;;;;;;27.35;28.77;101962.16;1920965;74;21479;-48
2022/10/12 11:24:11;;;;;;;2.10;0.90;;;;;;;27.00;28.68;101965.33;1900923;74;21529;-49
2022/10/12 11:26:57;;;;;;;1.40;0.80;;;;;;;26.62;29.11;101957.47;1922938;74;21154;-52
2022/10/12 11:29:27;;;;;;;2.27;0.60;;;;;;;26.40;28.85;101953.91;1869789;77;21110;-52
2022/10/12 11:32:06;;;;;;;2.80;0.68;;;;;;;25.63;29.49;101959.09;1884316;74;21020;-49
2022/10/12 11:34:40;;;;;;;2.47;0.65;;;;;;;25.23;30.18;101952.48;1898172;75;21079;-53
2022/10/12 11:37:12;;;;;;;2.55;1.42;;;;;;;24.77;30.74;101951.28;1913421;75;21047;-51
2022/10/12 11:39:47;;;;;;;0.82;0.70;;;;;;;24.15;30.88;101943.15;1914113;75;21071;-51
2022/10/12 11:42:18;;;;;;;2.15;0.70;;;;;;;23.52;31.35;101956.84;1921035;73;21458;-52
2022/10/12 11:44:48;;;;;;;1.50;0.90;;;;;;;23.06;31.88;101957.05;1939174;73;21015;-51
2022/10/12 11:47:32;;;;;;;0.70;0.60;;;;;;;22.66;32.41;101957.19;1921435;75;21470;-51
2022/10/12 11:50:09;;;;;;;1.98;0.70;;;;;;;22.38;32.84;101953.41;1921257;75;21466;-47
2022/10/12 11:52:44;;;;;;;1.00;0.70;;;;;;;21.94;32.96;101951.45;1913084;74;21531;-51
2022/10/12 11:55:30;;;;;;;1.65;0.90;;;;;;;21.63;33.60;101949.97;1880812;76;21116;-48